sensor_id;sensor_type;location;lat;lon;timestamp;P1;durP1;ratioP1;P2;durP2;ratioP2
2956;SDS011;1488;51.548;7.222;2022-08-14T00:00:08;2.10;;;2.00;;
2956;SDS011;1488;51.548;7.222;2022-08-14T00:02:39;1.97;;;1.87;;
2956;SDS011;1488;51.548;7.222;2022-08-14T00:05:07;2.13;;;2.03;;
2956;SDS011;1488;51.548;7.222;2022-08-14T00:07:35;2.37;;;2.27;;
2956;SDS011;1488;51.548;7.222;2022-08-14T00:10:10;2.13;;;2.03;;
2956;SDS011;1488;51.548;7.222;2022-08-14T00:12:40;2.17;;;2.07;;
2956;SDS011;1488;51.548;7.222;2022-08-14T00:15:10;2.40;;;2.30;;
2956;SDS011;1488;51.548;7.222;2022-08-14T00:17:40;2.23;;;2.13;;
2956;SDS011;1488;51.548;7.222;2022-08-14T00:20:08;2.13;;;2.03;;
2956;SDS011;1488;51.548;7.222;2022-08-14T00:22:36;2.00;;;1.90;;
2956;SDS011;1488;51.548;7.222;2022-08-14T00:25:04;2.30;;;2.20;;
2956;SDS011;1488;51.548;7.222;2022-08-14T00:27:32;2.20;;;2.10;;
2956;SDS011;1488;51.548;7.222;2022-08-14T00:29:59;1.90;;;1.80;;
2956;SDS011;1488;51.548;7.222;2022-08-14T00:32:26;2.13;;;2.03;;
2956;SDS011;1488;51.548;7.222;2022-08-14T00:34:54;2.07;;;1.97;;
2956;SDS011;1488;51.548;7.222;2022-08-14T00:37:25;2.37;;;2.27;;
2956;SDS011;1488;51.548;7.222;2022-08-14T00:39:52;2.20;;;2.10;;
2956;SDS011;1488;51.548;7.222;2022-08-14T00:42:19;2.20;;;2.10;;
2956;SDS011;1488;51.548;7.222;2022-08-14T00:44:46;2.20;;;2.10;;
2956;SDS011;1488;51.548;7.222;2022-08-14T00:47:13;1.90;;;1.80;;
2956;SDS011;1488;51.548;7.222;2022-08-14T00:49:40;2.17;;;2.07;;
2956;SDS011;1488;51.548;7.222;2022-08-14T00:52:09;2.57;;;2.40;;
2956;SDS011;1488;51.548;7.222;2022-08-14T00:54:36;3.20;;;2.33;;
2956;SDS011;1488;51.548;7.222;2022-08-14T00:57:04;2.40;;;2.30;;
2956;SDS011;1488;51.548;7.222;2022-08-14T00:59:31;2.30;;;2.20;;
2956;SDS011;1488;51.548;7.222;2022-08-14T01:01:59;2.03;;;1.93;;
2956;SDS011;1488;51.548;7.222;2022-08-14T01:04:29;2.33;;;2.13;;
2956;SDS011;1488;51.548;7.222;2022-08-14T01:07:00;2.47;;;2.30;;
2956;SDS011;1488;51.548;7.222;2022-08-14T01:09:29;2.23;;;2.13;;
2956;SDS011;1488;51.548;7.222;2022-08-14T01:11:56;2.20;;;2.10;;
2956;SDS011;1488;51.548;7.222;2022-08-14T01:14:23;2.37;;;2.27;;
2956;SDS011;1488;51.548;7.222;2022-08-14T01:16:50;2.20;;;2.10;;
2956;SDS011;1488;51.548;7.222;2022-08-14T01:19:17;1.83;;;1.73;;
2956;SDS011;1488;51.548;7.222;2022-08-14T01:22:03;2.10;;;2.00;;
2956;SDS011;1488;51.548;7.222;2022-08-14T01:24:32;2.37;;;2.27;;
2956;SDS011;1488;51.548;7.222;2022-08-14T01:27:00;1.90;;;1.80;;
2956;SDS011;1488;51.548;7.222;2022-08-14T01:29:28;2.10;;;2.00;;
2956;SDS011;1488;51.548;7.222;2022-08-14T01:32:00;2.00;;;1.90;;
2956;SDS011;1488;51.548;7.222;2022-08-14T01:34:28;2.20;;;2.10;;
2956;SDS011;1488;51.548;7.222;2022-08-14T01:36:57;2.43;;;2.33;;
2956;SDS011;1488;51.548;7.222;2022-08-14T01:39:25;2.13;;;2.03;;
2956;SDS011;1488;51.548;7.222;2022-08-14T01:41:52;2.57;;;2.47;;
2956;SDS011;1488;51.548;7.222;2022-08-14T01:44:23;2.00;;;1.90;;
2956;SDS011;1488;51.548;7.222;2022-08-14T01:46:55;2.20;;;2.10;;
2956;SDS011;1488;51.548;7.222;2022-08-14T01:49:23;2.00;;;1.90;;
2956;SDS011;1488;51.548;7.222;2022-08-14T01:51:52;2.00;;;1.90;;
2956;SDS011;1488;51.548;7.222;2022-08-14T01:54:21;2.00;;;1.90;;
2956;SDS011;1488;51.548;7.222;2022-08-14T01:56:51;2.50;;;2.40;;
2956;SDS011;1488;51.548;7.222;2022-08-14T01:59:20;2.00;;;1.90;;
2956;SDS011;1488;51.548;7.222;2022-08-14T02:01:49;2.37;;;2.27;;
2956;SDS011;1488;51.548;7.222;2022-08-14T02:04:17;2.07;;;1.97;;
2956;SDS011;1488;51.548;7.222;2022-08-14T02:06:45;2.30;;;2.20;;
2956;SDS011;1488;51.548;7.222;2022-08-14T02:09:12;2.73;;;2.53;;
2956;SDS011;1488;51.548;7.222;2022-08-14T02:11:39;2.60;;;2.40;;
2956;SDS011;1488;51.548;7.222;2022-08-14T02:14:08;2.50;;;2.40;;
2956;SDS011;1488;51.548;7.222;2022-08-14T02:16:37;2.43;;;2.33;;
2956;SDS011;1488;51.548;7.222;2022-08-14T02:19:06;2.00;;;1.90;;
2956;SDS011;1488;51.548;7.222;2022-08-14T02:21:34;2.37;;;2.27;;
2956;SDS011;1488;51.548;7.222;2022-08-14T02:24:02;2.73;;;2.60;;
2956;SDS011;1488;51.548;7.222;2022-08-14T02:26:32;2.43;;;2.33;;
2956;SDS011;1488;51.548;7.222;2022-08-14T02:29:00;2.77;;;2.57;;
2956;SDS011;1488;51.548;7.222;2022-08-14T02:31:33;2.40;;;2.30;;
2956;SDS011;1488;51.548;7.222;2022-08-14T02:34:02;2.20;;;2.10;;
2956;SDS011;1488;51.548;7.222;2022-08-14T02:36:30;2.17;;;2.07;;
2956;SDS011;1488;51.548;7.222;2022-08-14T02:38:57;2.10;;;2.00;;
2956;SDS011;1488;51.548;7.222;2022-08-14T02:41:24;2.63;;;2.53;;
2956;SDS011;1488;51.548;7.222;2022-08-14T02:43:52;2.60;;;2.50;;
2956;SDS011;1488;51.548;7.222;2022-08-14T02:46:19;2.40;;;2.30;;
2956;SDS011;1488;51.548;7.222;2022-08-14T02:48:47;2.23;;;2.13;;
2956;SDS011;1488;51.548;7.222;2022-08-14T02:51:14;2.17;;;2.07;;
2956;SDS011;1488;51.548;7.222;2022-08-14T02:53:42;2.37;;;2.27;;
2956;SDS011;1488;51.548;7.222;2022-08-14T02:56:10;2.60;;;2.50;;
2956;SDS011;1488;51.548;7.222;2022-08-14T02:58:39;2.70;;;2.60;;
2956;SDS011;1488;51.548;7.222;2022-08-14T03:01:10;2.73;;;2.53;;
2956;SDS011;1488;51.548;7.222;2022-08-14T03:03:38;2.60;;;2.50;;
2956;SDS011;1488;51.548;7.222;2022-08-14T03:06:07;2.77;;;2.67;;
2956;SDS011;1488;51.548;7.222;2022-08-14T03:08:35;2.00;;;1.90;;
2956;SDS011;1488;51.548;7.222;2022-08-14T03:11:04;2.50;;;2.37;;
2956;SDS011;1488;51.548;7.222;2022-08-14T03:13:33;2.60;;;2.50;;
2956;SDS011;1488;51.548;7.222;2022-08-14T03:16:01;2.20;;;2.10;;
2956;SDS011;1488;51.548;7.222;2022-08-14T03:18:29;2.97;;;2.87;;
2956;SDS011;1488;51.548;7.222;2022-08-14T03:20:58;2.70;;;2.60;;
2956;SDS011;1488;51.548;7.222;2022-08-14T03:23:28;2.47;;;2.37;;
2956;SDS011;1488;51.548;7.222;2022-08-14T03:25:58;2.30;;;2.20;;
2956;SDS011;1488;51.548;7.222;2022-08-14T03:28:27;2.40;;;2.30;;
2956;SDS011;1488;51.548;7.222;2022-08-14T03:30:55;2.27;;;2.17;;
2956;SDS011;1488;51.548;7.222;2022-08-14T03:33:22;2.03;;;1.93;;
2956;SDS011;1488;51.548;7.222;2022-08-14T03:35:49;2.40;;;2.30;;
2956;SDS011;1488;51.548;7.222;2022-08-14T03:38:16;3.13;;;3.03;;
2956;SDS011;1488;51.548;7.222;2022-08-14T03:40:45;2.57;;;2.47;;
2956;SDS011;1488;51.548;7.222;2022-08-14T03:43:12;2.40;;;2.30;;
2956;SDS011;1488;51.548;7.222;2022-08-14T03:45:39;2.70;;;2.60;;
2956;SDS011;1488;51.548;7.222;2022-08-14T03:48:09;2.63;;;2.53;;
2956;SDS011;1488;51.548;7.222;2022-08-14T03:50:43;2.67;;;2.57;;
2956;SDS011;1488;51.548;7.222;2022-08-14T03:53:10;2.97;;;2.87;;
2956;SDS011;1488;51.548;7.222;2022-08-14T03:55:38;2.63;;;2.53;;
2956;SDS011;1488;51.548;7.222;2022-08-14T03:58:07;2.70;;;2.60;;
2956;SDS011;1488;51.548;7.222;2022-08-14T04:00:36;2.53;;;2.43;;
2956;SDS011;1488;51.548;7.222;2022-08-14T04:03:04;2.10;;;2.00;;
2956;SDS011;1488;51.548;7.222;2022-08-14T04:05:32;2.97;;;2.87;;
2956;SDS011;1488;51.548;7.222;2022-08-14T04:08:00;3.00;;;2.90;;
2956;SDS011;1488;51.548;7.222;2022-08-14T04:10:27;2.30;;;2.20;;
2956;SDS011;1488;51.548;7.222;2022-08-14T04:12:54;2.43;;;2.33;;
2956;SDS011;1488;51.548;7.222;2022-08-14T04:15:26;2.70;;;2.60;;
2956;SDS011;1488;51.548;7.222;2022-08-14T04:17:53;3.07;;;2.97;;
2956;SDS011;1488;51.548;7.222;2022-08-14T04:20:20;2.73;;;2.63;;
2956;SDS011;1488;51.548;7.222;2022-08-14T04:22:47;2.57;;;2.47;;
2956;SDS011;1488;51.548;7.222;2022-08-14T04:25:15;2.50;;;2.40;;
2956;SDS011;1488;51.548;7.222;2022-08-14T04:27:42;2.80;;;2.70;;
2956;SDS011;1488;51.548;7.222;2022-08-14T04:30:09;2.90;;;2.73;;
2956;SDS011;1488;51.548;7.222;2022-08-14T04:32:38;3.10;;;3.00;;
2956;SDS011;1488;51.548;7.222;2022-08-14T04:35:05;2.90;;;2.80;;
2956;SDS011;1488;51.548;7.222;2022-08-14T04:37:33;2.40;;;2.30;;
2956;SDS011;1488;51.548;7.222;2022-08-14T04:40:17;2.50;;;2.40;;
2956;SDS011;1488;51.548;7.222;2022-08-14T04:43:02;2.73;;;2.63;;
2956;SDS011;1488;51.548;7.222;2022-08-14T04:45:46;2.40;;;2.30;;
2956;SDS011;1488;51.548;7.222;2022-08-14T04:48:15;2.93;;;2.80;;
2956;SDS011;1488;51.548;7.222;2022-08-14T04:50:45;2.33;;;2.23;;
2956;SDS011;1488;51.548;7.222;2022-08-14T04:53:18;2.43;;;2.33;;
2956;SDS011;1488;51.548;7.222;2022-08-14T04:55:47;2.53;;;2.43;;
2956;SDS011;1488;51.548;7.222;2022-08-14T04:58:15;2.80;;;2.60;;
2956;SDS011;1488;51.548;7.222;2022-08-14T05:00:43;2.70;;;2.60;;
2956;SDS011;1488;51.548;7.222;2022-08-14T05:03:16;2.63;;;2.53;;
2956;SDS011;1488;51.548;7.222;2022-08-14T05:05:45;3.40;;;3.20;;
2956;SDS011;1488;51.548;7.222;2022-08-14T05:08:12;2.87;;;2.77;;
2956;SDS011;1488;51.548;7.222;2022-08-14T05:10:41;2.60;;;2.50;;
2956;SDS011;1488;51.548;7.222;2022-08-14T05:13:10;3.00;;;2.90;;
2956;SDS011;1488;51.548;7.222;2022-08-14T05:15:38;2.60;;;2.50;;
2956;SDS011;1488;51.548;7.222;2022-08-14T05:18:09;2.87;;;2.77;;
2956;SDS011;1488;51.548;7.222;2022-08-14T05:20:39;2.40;;;2.30;;
2956;SDS011;1488;51.548;7.222;2022-08-14T05:23:09;2.60;;;2.50;;
2956;SDS011;1488;51.548;7.222;2022-08-14T05:25:38;2.77;;;2.67;;
2956;SDS011;1488;51.548;7.222;2022-08-14T05:28:06;2.90;;;2.80;;
2956;SDS011;1488;51.548;7.222;2022-08-14T05:30:35;2.80;;;2.70;;
2956;SDS011;1488;51.548;7.222;2022-08-14T05:33:02;2.83;;;2.73;;
2956;SDS011;1488;51.548;7.222;2022-08-14T05:35:29;3.00;;;2.90;;
2956;SDS011;1488;51.548;7.222;2022-08-14T05:37:58;3.07;;;2.97;;
2956;SDS011;1488;51.548;7.222;2022-08-14T05:40:32;3.20;;;3.10;;
2956;SDS011;1488;51.548;7.222;2022-08-14T05:43:01;2.40;;;2.30;;
2956;SDS011;1488;51.548;7.222;2022-08-14T05:45:29;2.67;;;2.57;;
2956;SDS011;1488;51.548;7.222;2022-08-14T05:47:56;2.80;;;2.70;;
2956;SDS011;1488;51.548;7.222;2022-08-14T05:50:23;2.40;;;2.30;;
2956;SDS011;1488;51.548;7.222;2022-08-14T05:52:51;2.60;;;2.50;;
2956;SDS011;1488;51.548;7.222;2022-08-14T05:55:20;2.57;;;2.47;;
2956;SDS011;1488;51.548;7.222;2022-08-14T05:57:49;2.80;;;2.70;;
2956;SDS011;1488;51.548;7.222;2022-08-14T06:00:18;2.70;;;2.60;;
2956;SDS011;1488;51.548;7.222;2022-08-14T06:02:49;2.70;;;2.60;;
2956;SDS011;1488;51.548;7.222;2022-08-14T06:05:15;2.60;;;2.50;;
2956;SDS011;1488;51.548;7.222;2022-08-14T06:07:42;3.00;;;2.80;;
2956;SDS011;1488;51.548;7.222;2022-08-14T06:10:09;3.13;;;3.03;;
2956;SDS011;1488;51.548;7.222;2022-08-14T06:12:38;2.67;;;2.57;;
2956;SDS011;1488;51.548;7.222;2022-08-14T06:15:05;5.13;;;4.83;;
2956;SDS011;1488;51.548;7.222;2022-08-14T06:17:41;7.13;;;6.50;;
2956;SDS011;1488;51.548;7.222;2022-08-14T06:20:09;7.13;;;6.43;;
2956;SDS011;1488;51.548;7.222;2022-08-14T06:22:36;8.00;;;7.20;;
2956;SDS011;1488;51.548;7.222;2022-08-14T06:25:04;7.77;;;7.27;;
2956;SDS011;1488;51.548;7.222;2022-08-14T06:27:34;8.80;;;8.10;;
2956;SDS011;1488;51.548;7.222;2022-08-14T06:30:03;8.30;;;7.60;;
2956;SDS011;1488;51.548;7.222;2022-08-14T06:32:31;7.30;;;6.80;;
2956;SDS011;1488;51.548;7.222;2022-08-14T06:34:58;8.43;;;7.73;;
2956;SDS011;1488;51.548;7.222;2022-08-14T06:37:25;7.47;;;6.87;;
2956;SDS011;1488;51.548;7.222;2022-08-14T06:39:52;7.40;;;6.83;;
2956;SDS011;1488;51.548;7.222;2022-08-14T06:42:19;7.97;;;7.37;;
2956;SDS011;1488;51.548;7.222;2022-08-14T06:44:46;6.93;;;6.53;;
2956;SDS011;1488;51.548;7.222;2022-08-14T06:47:14;7.57;;;7.10;;
2956;SDS011;1488;51.548;7.222;2022-08-14T06:49:41;9.20;;;8.50;;
2956;SDS011;1488;51.548;7.222;2022-08-14T06:52:08;10.10;;;7.20;;
2956;SDS011;1488;51.548;7.222;2022-08-14T06:54:35;7.60;;;6.90;;
2956;SDS011;1488;51.548;7.222;2022-08-14T06:57:02;7.43;;;6.90;;
2956;SDS011;1488;51.548;7.222;2022-08-14T06:59:29;6.33;;;5.93;;
2956;SDS011;1488;51.548;7.222;2022-08-14T07:01:56;6.43;;;5.93;;
2956;SDS011;1488;51.548;7.222;2022-08-14T07:04:42;6.17;;;5.77;;
2956;SDS011;1488;51.548;7.222;2022-08-14T07:07:33;5.20;;;4.90;;
2956;SDS011;1488;51.548;7.222;2022-08-14T07:10:01;5.20;;;4.90;;
2956;SDS011;1488;51.548;7.222;2022-08-14T07:12:29;5.40;;;5.10;;
2956;SDS011;1488;51.548;7.222;2022-08-14T07:14:56;6.67;;;5.13;;
2956;SDS011;1488;51.548;7.222;2022-08-14T07:17:23;5.00;;;4.70;;
2956;SDS011;1488;51.548;7.222;2022-08-14T07:19:52;5.93;;;5.50;;
2956;SDS011;1488;51.548;7.222;2022-08-14T07:22:19;5.70;;;5.30;;
2956;SDS011;1488;51.548;7.222;2022-08-14T07:24:46;5.70;;;5.30;;
2956;SDS011;1488;51.548;7.222;2022-08-14T07:27:13;4.70;;;4.50;;
2956;SDS011;1488;51.548;7.222;2022-08-14T07:29:39;5.47;;;5.17;;
2956;SDS011;1488;51.548;7.222;2022-08-14T07:32:07;5.60;;;5.30;;
2956;SDS011;1488;51.548;7.222;2022-08-14T07:34:35;5.13;;;4.90;;
2956;SDS011;1488;51.548;7.222;2022-08-14T07:37:03;5.17;;;4.87;;
2956;SDS011;1488;51.548;7.222;2022-08-14T07:39:30;5.53;;;5.13;;
2956;SDS011;1488;51.548;7.222;2022-08-14T07:41:57;4.90;;;4.60;;
2956;SDS011;1488;51.548;7.222;2022-08-14T07:44:24;4.97;;;4.50;;
2956;SDS011;1488;51.548;7.222;2022-08-14T07:46:51;4.83;;;4.53;;
2956;SDS011;1488;51.548;7.222;2022-08-14T07:49:18;5.10;;;4.80;;
2956;SDS011;1488;51.548;7.222;2022-08-14T07:51:46;5.63;;;5.23;;
2956;SDS011;1488;51.548;7.222;2022-08-14T07:54:15;5.83;;;5.33;;
2956;SDS011;1488;51.548;7.222;2022-08-14T07:56:42;5.50;;;5.20;;
2956;SDS011;1488;51.548;7.222;2022-08-14T07:59:09;4.93;;;4.63;;
2956;SDS011;1488;51.548;7.222;2022-08-14T08:01:36;5.37;;;4.97;;
2956;SDS011;1488;51.548;7.222;2022-08-14T08:04:03;5.17;;;4.77;;
2956;SDS011;1488;51.548;7.222;2022-08-14T08:06:32;5.57;;;5.17;;
2956;SDS011;1488;51.548;7.222;2022-08-14T08:08:59;5.50;;;5.00;;
2956;SDS011;1488;51.548;7.222;2022-08-14T08:11:29;5.83;;;5.33;;
2956;SDS011;1488;51.548;7.222;2022-08-14T08:13:58;5.63;;;5.33;;
2956;SDS011;1488;51.548;7.222;2022-08-14T08:16:30;6.77;;;5.47;;
2956;SDS011;1488;51.548;7.222;2022-08-14T08:18:57;5.80;;;4.20;;
2956;SDS011;1488;51.548;7.222;2022-08-14T08:21:24;4.53;;;4.23;;
2956;SDS011;1488;51.548;7.222;2022-08-14T08:23:51;5.57;;;5.27;;
2956;SDS011;1488;51.548;7.222;2022-08-14T08:26:18;9.37;;;5.13;;
2956;SDS011;1488;51.548;7.222;2022-08-14T08:28:55;5.07;;;4.83;;
2956;SDS011;1488;51.548;7.222;2022-08-14T08:31:23;4.90;;;4.50;;
2956;SDS011;1488;51.548;7.222;2022-08-14T08:33:50;5.77;;;5.33;;
2956;SDS011;1488;51.548;7.222;2022-08-14T08:36:18;4.90;;;4.60;;
2956;SDS011;1488;51.548;7.222;2022-08-14T08:38:46;4.43;;;4.23;;
2956;SDS011;1488;51.548;7.222;2022-08-14T08:41:14;4.70;;;4.40;;
2956;SDS011;1488;51.548;7.222;2022-08-14T08:43:41;4.57;;;4.30;;
2956;SDS011;1488;51.548;7.222;2022-08-14T08:46:10;4.13;;;3.93;;
2956;SDS011;1488;51.548;7.222;2022-08-14T08:48:43;4.63;;;4.43;;
2956;SDS011;1488;51.548;7.222;2022-08-14T08:51:19;3.93;;;3.63;;
2956;SDS011;1488;51.548;7.222;2022-08-14T08:53:54;4.60;;;4.23;;
2956;SDS011;1488;51.548;7.222;2022-08-14T08:56:31;5.17;;;4.87;;
2956;SDS011;1488;51.548;7.222;2022-08-14T08:59:02;4.80;;;4.50;;
2956;SDS011;1488;51.548;7.222;2022-08-14T09:01:42;4.57;;;4.37;;
2956;SDS011;1488;51.548;7.222;2022-08-14T09:04:15;4.70;;;4.40;;
2956;SDS011;1488;51.548;7.222;2022-08-14T09:06:43;4.70;;;4.30;;
2956;SDS011;1488;51.548;7.222;2022-08-14T09:09:17;4.83;;;4.53;;
2956;SDS011;1488;51.548;7.222;2022-08-14T09:11:48;4.33;;;4.13;;
2956;SDS011;1488;51.548;7.222;2022-08-14T09:14:16;4.47;;;4.17;;
2956;SDS011;1488;51.548;7.222;2022-08-14T09:16:44;4.40;;;4.20;;
2956;SDS011;1488;51.548;7.222;2022-08-14T09:19:11;4.50;;;4.30;;
2956;SDS011;1488;51.548;7.222;2022-08-14T09:21:38;4.27;;;3.97;;
2956;SDS011;1488;51.548;7.222;2022-08-14T09:24:05;4.70;;;4.40;;
2956;SDS011;1488;51.548;7.222;2022-08-14T09:26:33;4.80;;;4.40;;
2956;SDS011;1488;51.548;7.222;2022-08-14T09:29:00;5.07;;;4.77;;
2956;SDS011;1488;51.548;7.222;2022-08-14T09:31:28;4.27;;;4.07;;
2956;SDS011;1488;51.548;7.222;2022-08-14T09:34:00;5.00;;;4.60;;
2956;SDS011;1488;51.548;7.222;2022-08-14T09:36:36;6.83;;;4.33;;
2956;SDS011;1488;51.548;7.222;2022-08-14T09:39:13;4.77;;;4.30;;
2956;SDS011;1488;51.548;7.222;2022-08-14T09:41:54;4.40;;;4.20;;
2956;SDS011;1488;51.548;7.222;2022-08-14T09:44:46;4.43;;;4.10;;
2956;SDS011;1488;51.548;7.222;2022-08-14T09:47:39;4.27;;;4.07;;
2956;SDS011;1488;51.548;7.222;2022-08-14T09:50:15;3.63;;;3.43;;
2956;SDS011;1488;51.548;7.222;2022-08-14T09:52:48;4.20;;;4.00;;
2956;SDS011;1488;51.548;7.222;2022-08-14T09:55:16;4.07;;;3.87;;
2956;SDS011;1488;51.548;7.222;2022-08-14T09:57:45;4.23;;;4.03;;
2956;SDS011;1488;51.548;7.222;2022-08-14T10:00:13;3.93;;;3.70;;
2956;SDS011;1488;51.548;7.222;2022-08-14T10:02:53;4.63;;;4.30;;
2956;SDS011;1488;51.548;7.222;2022-08-14T10:05:30;3.63;;;3.43;;
2956;SDS011;1488;51.548;7.222;2022-08-14T10:07:58;4.97;;;4.40;;
2956;SDS011;1488;51.548;7.222;2022-08-14T10:10:30;3.97;;;3.77;;
2956;SDS011;1488;51.548;7.222;2022-08-14T10:12:59;4.27;;;3.97;;
2956;SDS011;1488;51.548;7.222;2022-08-14T10:15:28;4.43;;;4.13;;
2956;SDS011;1488;51.548;7.222;2022-08-14T10:18:02;4.17;;;3.97;;
2956;SDS011;1488;51.548;7.222;2022-08-14T10:20:33;3.73;;;3.53;;
2956;SDS011;1488;51.548;7.222;2022-08-14T10:23:09;3.53;;;3.33;;
2956;SDS011;1488;51.548;7.222;2022-08-14T10:25:40;4.07;;;3.87;;
2956;SDS011;1488;51.548;7.222;2022-08-14T10:28:09;3.93;;;3.67;;
2956;SDS011;1488;51.548;7.222;2022-08-14T10:30:39;3.83;;;3.63;;
2956;SDS011;1488;51.548;7.222;2022-08-14T10:33:08;3.60;;;3.40;;
2956;SDS011;1488;51.548;7.222;2022-08-14T10:35:40;3.63;;;3.37;;
2956;SDS011;1488;51.548;7.222;2022-08-14T10:38:11;4.00;;;3.80;;
2956;SDS011;1488;51.548;7.222;2022-08-14T10:40:39;3.77;;;3.57;;
2956;SDS011;1488;51.548;7.222;2022-08-14T10:43:17;4.10;;;3.70;;
2956;SDS011;1488;51.548;7.222;2022-08-14T10:45:56;4.60;;;4.20;;
2956;SDS011;1488;51.548;7.222;2022-08-14T10:48:26;3.50;;;3.30;;
2956;SDS011;1488;51.548;7.222;2022-08-14T10:50:54;4.07;;;3.87;;
2956;SDS011;1488;51.548;7.222;2022-08-14T10:53:30;4.20;;;4.00;;
2956;SDS011;1488;51.548;7.222;2022-08-14T10:56:01;3.37;;;3.17;;
2956;SDS011;1488;51.548;7.222;2022-08-14T10:58:34;4.07;;;3.67;;
2956;SDS011;1488;51.548;7.222;2022-08-14T11:01:01;4.27;;;3.97;;
2956;SDS011;1488;51.548;7.222;2022-08-14T11:03:36;4.73;;;4.40;;
2956;SDS011;1488;51.548;7.222;2022-08-14T11:06:13;4.30;;;4.00;;
2956;SDS011;1488;51.548;7.222;2022-08-14T11:08:44;7.60;;;3.87;;
2956;SDS011;1488;51.548;7.222;2022-08-14T11:11:12;4.07;;;3.87;;
2956;SDS011;1488;51.548;7.222;2022-08-14T11:13:40;3.33;;;3.23;;
2956;SDS011;1488;51.548;7.222;2022-08-14T11:16:10;3.97;;;3.77;;
2956;SDS011;1488;51.548;7.222;2022-08-14T11:18:40;3.97;;;3.77;;
2956;SDS011;1488;51.548;7.222;2022-08-14T11:21:14;6.33;;;3.50;;
2956;SDS011;1488;51.548;7.222;2022-08-14T11:23:45;4.20;;;3.90;;
2956;SDS011;1488;51.548;7.222;2022-08-14T11:26:13;3.20;;;3.10;;
2956;SDS011;1488;51.548;7.222;2022-08-14T11:28:43;2.90;;;2.80;;
2956;SDS011;1488;51.548;7.222;2022-08-14T11:31:13;4.07;;;3.67;;
2956;SDS011;1488;51.548;7.222;2022-08-14T11:33:43;3.33;;;3.13;;
2956;SDS011;1488;51.548;7.222;2022-08-14T11:36:15;4.00;;;3.67;;
2956;SDS011;1488;51.548;7.222;2022-08-14T11:38:43;3.57;;;3.37;;
2956;SDS011;1488;51.548;7.222;2022-08-14T11:41:13;4.07;;;3.77;;
2956;SDS011;1488;51.548;7.222;2022-08-14T11:43:41;3.80;;;3.60;;
2956;SDS011;1488;51.548;7.222;2022-08-14T11:46:09;3.80;;;3.50;;
2956;SDS011;1488;51.548;7.222;2022-08-14T11:48:43;3.87;;;3.67;;
2956;SDS011;1488;51.548;7.222;2022-08-14T11:51:12;3.50;;;3.30;;
2956;SDS011;1488;51.548;7.222;2022-08-14T11:53:50;3.87;;;3.67;;
2956;SDS011;1488;51.548;7.222;2022-08-14T11:56:19;3.70;;;3.50;;
2956;SDS011;1488;51.548;7.222;2022-08-14T11:58:48;3.80;;;3.60;;
2956;SDS011;1488;51.548;7.222;2022-08-14T12:01:22;3.73;;;3.53;;
2956;SDS011;1488;51.548;7.222;2022-08-14T12:03:52;3.73;;;3.53;;
2956;SDS011;1488;51.548;7.222;2022-08-14T12:06:22;3.60;;;3.40;;
2956;SDS011;1488;51.548;7.222;2022-08-14T12:08:51;3.80;;;3.60;;
2956;SDS011;1488;51.548;7.222;2022-08-14T12:11:20;3.37;;;3.27;;
2956;SDS011;1488;51.548;7.222;2022-08-14T12:13:47;3.47;;;3.27;;
2956;SDS011;1488;51.548;7.222;2022-08-14T12:16:15;3.40;;;3.13;;
2956;SDS011;1488;51.548;7.222;2022-08-14T12:18:42;3.37;;;3.27;;
2956;SDS011;1488;51.548;7.222;2022-08-14T12:21:13;4.00;;;3.80;;
2956;SDS011;1488;51.548;7.222;2022-08-14T12:23:42;3.87;;;3.57;;
2956;SDS011;1488;51.548;7.222;2022-08-14T12:26:12;4.00;;;3.80;;
2956;SDS011;1488;51.548;7.222;2022-08-14T12:28:44;3.83;;;3.63;;
2956;SDS011;1488;51.548;7.222;2022-08-14T12:31:16;3.33;;;3.13;;
2956;SDS011;1488;51.548;7.222;2022-08-14T12:33:54;3.53;;;3.43;;
2956;SDS011;1488;51.548;7.222;2022-08-14T12:36:23;3.87;;;3.23;;
2956;SDS011;1488;51.548;7.222;2022-08-14T12:38:51;3.43;;;3.23;;
2956;SDS011;1488;51.548;7.222;2022-08-14T12:41:22;3.63;;;3.43;;
2956;SDS011;1488;51.548;7.222;2022-08-14T12:43:51;3.27;;;3.07;;
2956;SDS011;1488;51.548;7.222;2022-08-14T12:46:24;3.33;;;3.13;;
2956;SDS011;1488;51.548;7.222;2022-08-14T12:48:53;3.00;;;2.90;;
2956;SDS011;1488;51.548;7.222;2022-08-14T12:51:21;3.40;;;3.20;;
2956;SDS011;1488;51.548;7.222;2022-08-14T12:53:50;3.70;;;3.40;;
2956;SDS011;1488;51.548;7.222;2022-08-14T12:56:18;3.80;;;3.60;;
2956;SDS011;1488;51.548;7.222;2022-08-14T12:58:55;3.50;;;3.33;;
2956;SDS011;1488;51.548;7.222;2022-08-14T13:01:33;3.30;;;3.20;;
2956;SDS011;1488;51.548;7.222;2022-08-14T13:04:02;3.33;;;3.17;;
2956;SDS011;1488;51.548;7.222;2022-08-14T13:06:33;3.20;;;3.10;;
2956;SDS011;1488;51.548;7.222;2022-08-14T13:09:07;3.87;;;3.57;;
2956;SDS011;1488;51.548;7.222;2022-08-14T13:11:37;3.80;;;3.60;;
2956;SDS011;1488;51.548;7.222;2022-08-14T13:14:09;3.30;;;3.10;;
2956;SDS011;1488;51.548;7.222;2022-08-14T13:16:38;3.60;;;3.40;;
2956;SDS011;1488;51.548;7.222;2022-08-14T13:19:06;3.57;;;3.37;;
2956;SDS011;1488;51.548;7.222;2022-08-14T13:21:40;3.17;;;3.07;;
2956;SDS011;1488;51.548;7.222;2022-08-14T13:24:07;3.33;;;3.23;;
2956;SDS011;1488;51.548;7.222;2022-08-14T13:26:38;3.03;;;2.87;;
2956;SDS011;1488;51.548;7.222;2022-08-14T13:29:09;3.20;;;3.00;;
2956;SDS011;1488;51.548;7.222;2022-08-14T13:31:37;3.47;;;3.27;;
2956;SDS011;1488;51.548;7.222;2022-08-14T13:34:11;3.13;;;3.03;;
2956;SDS011;1488;51.548;7.222;2022-08-14T13:36:38;3.20;;;3.10;;
2956;SDS011;1488;51.548;7.222;2022-08-14T13:39:08;3.00;;;2.90;;
2956;SDS011;1488;51.548;7.222;2022-08-14T13:41:35;3.13;;;3.03;;
2956;SDS011;1488;51.548;7.222;2022-08-14T13:44:04;3.10;;;3.00;;
2956;SDS011;1488;51.548;7.222;2022-08-14T13:46:31;3.40;;;3.20;;
2956;SDS011;1488;51.548;7.222;2022-08-14T13:49:00;3.23;;;3.03;;
2956;SDS011;1488;51.548;7.222;2022-08-14T13:51:37;3.67;;;3.47;;
2956;SDS011;1488;51.548;7.222;2022-08-14T13:54:07;3.33;;;3.23;;
2956;SDS011;1488;51.548;7.222;2022-08-14T13:56:37;3.60;;;3.40;;
2956;SDS011;1488;51.548;7.222;2022-08-14T13:59:07;3.70;;;3.50;;
2956;SDS011;1488;51.548;7.222;2022-08-14T14:01:38;3.57;;;3.37;;
2956;SDS011;1488;51.548;7.222;2022-08-14T14:04:13;3.63;;;3.43;;
2956;SDS011;1488;51.548;7.222;2022-08-14T14:06:42;3.10;;;3.00;;
2956;SDS011;1488;51.548;7.222;2022-08-14T14:09:11;3.00;;;2.90;;
2956;SDS011;1488;51.548;7.222;2022-08-14T14:11:44;3.17;;;3.07;;
2956;SDS011;1488;51.548;7.222;2022-08-14T14:14:14;3.03;;;2.83;;
2956;SDS011;1488;51.548;7.222;2022-08-14T14:16:41;2.80;;;2.70;;
2956;SDS011;1488;51.548;7.222;2022-08-14T14:19:12;3.87;;;3.67;;
2956;SDS011;1488;51.548;7.222;2022-08-14T14:21:52;2.93;;;2.83;;
2956;SDS011;1488;51.548;7.222;2022-08-14T14:24:22;3.30;;;3.20;;
2956;SDS011;1488;51.548;7.222;2022-08-14T14:26:49;3.20;;;3.10;;
2956;SDS011;1488;51.548;7.222;2022-08-14T14:29:18;3.60;;;3.40;;
2956;SDS011;1488;51.548;7.222;2022-08-14T14:31:47;3.50;;;3.40;;
2956;SDS011;1488;51.548;7.222;2022-08-14T14:34:15;3.50;;;3.30;;
2956;SDS011;1488;51.548;7.222;2022-08-14T14:36:44;2.90;;;2.80;;
2956;SDS011;1488;51.548;7.222;2022-08-14T14:39:12;3.60;;;3.40;;
2956;SDS011;1488;51.548;7.222;2022-08-14T14:41:41;3.07;;;2.97;;
2956;SDS011;1488;51.548;7.222;2022-08-14T14:44:11;3.40;;;2.80;;
2956;SDS011;1488;51.548;7.222;2022-08-14T14:46:40;3.20;;;3.10;;
2956;SDS011;1488;51.548;7.222;2022-08-14T14:49:13;3.63;;;3.43;;
2956;SDS011;1488;51.548;7.222;2022-08-14T14:51:42;4.80;;;4.40;;
2956;SDS011;1488;51.548;7.222;2022-08-14T14:54:10;5.83;;;4.07;;
2956;SDS011;1488;51.548;7.222;2022-08-14T14:56:38;4.70;;;4.30;;
2956;SDS011;1488;51.548;7.222;2022-08-14T14:59:06;5.33;;;4.10;;
2956;SDS011;1488;51.548;7.222;2022-08-14T15:01:34;4.80;;;4.40;;
2956;SDS011;1488;51.548;7.222;2022-08-14T15:04:03;4.60;;;4.30;;
2956;SDS011;1488;51.548;7.222;2022-08-14T15:06:32;4.30;;;3.87;;
2956;SDS011;1488;51.548;7.222;2022-08-14T15:08:59;4.77;;;4.30;;
2956;SDS011;1488;51.548;7.222;2022-08-14T15:11:27;7.70;;;5.00;;
2956;SDS011;1488;51.548;7.222;2022-08-14T15:13:54;4.40;;;4.00;;
2956;SDS011;1488;51.548;7.222;2022-08-14T15:16:21;5.27;;;4.70;;
2956;SDS011;1488;51.548;7.222;2022-08-14T15:18:48;8.20;;;4.80;;
2956;SDS011;1488;51.548;7.222;2022-08-14T15:21:16;7.50;;;4.87;;
2956;SDS011;1488;51.548;7.222;2022-08-14T15:23:43;4.77;;;4.33;;
2956;SDS011;1488;51.548;7.222;2022-08-14T15:26:12;8.10;;;4.00;;
2956;SDS011;1488;51.548;7.222;2022-08-14T15:28:39;4.50;;;4.10;;